sensor_id;sensor_type;location;lat;lon;timestamp;temperature;humidity
3564;DHT22;1796;52.388;13.096;2024-01-25T00:02:13;7.90;99.90
3564;DHT22;1796;52.388;13.096;2024-01-25T00:04:40;7.90;99.90
3564;DHT22;1796;52.388;13.096;2024-01-25T00:07:08;8.00;99.90
3564;DHT22;1796;52.388;13.096;2024-01-25T00:09:35;8.10;99.90
3564;DHT22;1796;52.388;13.096;2024-01-25T00:12:04;8.00;99.90
3564;DHT22;1796;52.388;13.096;2024-01-25T00:14:31;8.00;99.90
3564;DHT22;1796;52.388;13.096;2024-01-25T00:16:58;7.90;99.90
3564;DHT22;1796;52.388;13.096;2024-01-25T00:19:25;7.90;99.90
3564;DHT22;1796;52.388;13.096;2024-01-25T00:21:52;8.00;99.90
3564;DHT22;1796;52.388;13.096;2024-01-25T00:24:19;8.00;99.90
3564;DHT22;1796;52.388;13.096;2024-01-25T00:26:46;8.00;99.90
3564;DHT22;1796;52.388;13.096;2024-01-25T00:29:14;8.10;99.90
3564;DHT22;1796;52.388;13.096;2024-01-25T00:31:42;7.90;99.90
3564;DHT22;1796;52.388;13.096;2024-01-25T00:34:09;7.90;99.90
3564;DHT22;1796;52.388;13.096;2024-01-25T00:36:36;8.00;99.90
3564;DHT22;1796;52.388;13.096;2024-01-25T00:39:04;8.00;99.90
3564;DHT22;1796;52.388;13.096;2024-01-25T00:41:32;8.00;99.90
3564;DHT22;1796;52.388;13.096;2024-01-25T00:43:59;8.00;99.90
3564;DHT22;1796;52.388;13.096;2024-01-25T00:46:28;8.00;99.90
3564;DHT22;1796;52.388;13.096;2024-01-25T00:48:55;8.00;99.90
3564;DHT22;1796;52.388;13.096;2024-01-25T00:51:23;8.00;99.90
3564;DHT22;1796;52.388;13.096;2024-01-25T00:53:50;8.00;99.90
3564;DHT22;1796;52.388;13.096;2024-01-25T00:56:18;8.00;99.90
3564;DHT22;1796;52.388;13.096;2024-01-25T00:58:45;8.00;99.90
3564;DHT22;1796;52.388;13.096;2024-01-25T01:01:13;8.00;99.90
3564;DHT22;1796;52.388;13.096;2024-01-25T01:03:41;8.00;99.90
3564;DHT22;1796;52.388;13.096;2024-01-25T01:06:09;8.00;99.90
3564;DHT22;1796;52.388;13.096;2024-01-25T01:08:37;8.00;99.90
3564;DHT22;1796;52.388;13.096;2024-01-25T01:11:04;8.10;99.90
3564;DHT22;1796;52.388;13.096;2024-01-25T01:13:31;8.00;99.90
3564;DHT22;1796;52.388;13.096;2024-01-25T01:15:58;8.10;99.90
3564;DHT22;1796;52.388;13.096;2024-01-25T01:18:25;8.00;99.90
3564;DHT22;1796;52.388;13.096;2024-01-25T01:20:53;7.90;99.90
3564;DHT22;1796;52.388;13.096;2024-01-25T01:23:20;8.00;99.90
3564;DHT22;1796;52.388;13.096;2024-01-25T01:25:47;8.00;99.90
3564;DHT22;1796;52.388;13.096;2024-01-25T01:28:14;8.00;99.90
3564;DHT22;1796;52.388;13.096;2024-01-25T01:30:40;8.00;99.90
3564;DHT22;1796;52.388;13.096;2024-01-25T01:33:08;8.00;99.90
3564;DHT22;1796;52.388;13.096;2024-01-25T01:35:35;7.90;99.90
3564;DHT22;1796;52.388;13.096;2024-01-25T01:38:07;8.00;99.90
3564;DHT22;1796;52.388;13.096;2024-01-25T01:40:33;8.00;99.90
3564;DHT22;1796;52.388;13.096;2024-01-25T01:43:01;8.00;99.90
3564;DHT22;1796;52.388;13.096;2024-01-25T01:45:28;8.00;99.90
3564;DHT22;1796;52.388;13.096;2024-01-25T01:47:56;7.90;99.90
3564;DHT22;1796;52.388;13.096;2024-01-25T01:50:23;7.90;99.90
3564;DHT22;1796;52.388;13.096;2024-01-25T01:52:51;7.90;99.90
3564;DHT22;1796;52.388;13.096;2024-01-25T01:55:21;7.90;99.90
3564;DHT22;1796;52.388;13.096;2024-01-25T01:57:48;7.90;99.90
3564;DHT22;1796;52.388;13.096;2024-01-25T02:00:16;7.80;99.90
3564;DHT22;1796;52.388;13.096;2024-01-25T02:02:43;7.80;99.90
3564;DHT22;1796;52.388;13.096;2024-01-25T02:05:10;7.90;99.90
3564;DHT22;1796;52.388;13.096;2024-01-25T02:07:39;7.90;99.90
3564;DHT22;1796;52.388;13.096;2024-01-25T02:10:08;7.80;99.90
3564;DHT22;1796;52.388;13.096;2024-01-25T02:12:36;7.80;99.90
3564;DHT22;1796;52.388;13.096;2024-01-25T02:15:04;7.80;99.90
3564;DHT22;1796;52.388;13.096;2024-01-25T02:17:31;7.90;99.90
3564;DHT22;1796;52.388;13.096;2024-01-25T02:19:58;7.70;99.90
3564;DHT22;1796;52.388;13.096;2024-01-25T02:22:27;7.70;99.90
3564;DHT22;1796;52.388;13.096;2024-01-25T02:24:54;7.70;99.90
3564;DHT22;1796;52.388;13.096;2024-01-25T02:27:21;7.70;99.90
3564;DHT22;1796;52.388;13.096;2024-01-25T02:29:48;7.70;99.90
3564;DHT22;1796;52.388;13.096;2024-01-25T02:32:15;7.70;99.90
3564;DHT22;1796;52.388;13.096;2024-01-25T02:34:41;7.80;99.90
3564;DHT22;1796;52.388;13.096;2024-01-25T02:37:08;7.80;99.90
3564;DHT22;1796;52.388;13.096;2024-01-25T02:39:38;7.80;99.90
3564;DHT22;1796;52.388;13.096;2024-01-25T02:48:49;7.80;99.90
3564;DHT22;1796;52.388;13.096;2024-01-25T02:51:16;7.80;99.90
3564;DHT22;1796;52.388;13.096;2024-01-25T02:53:43;7.80;99.90
3564;DHT22;1796;52.388;13.096;2024-01-25T02:56:11;7.70;99.90
3564;DHT22;1796;52.388;13.096;2024-01-25T02:58:38;7.70;99.90
3564;DHT22;1796;52.388;13.096;2024-01-25T03:01:05;7.70;99.90
3564;DHT22;1796;52.388;13.096;2024-01-25T03:03:32;7.70;99.90
3564;DHT22;1796;52.388;13.096;2024-01-25T03:05:58;7.70;99.90
3564;DHT22;1796;52.388;13.096;2024-01-25T03:08:25;7.70;99.90
3564;DHT22;1796;52.388;13.096;2024-01-25T03:10:52;7.50;99.90
3564;DHT22;1796;52.388;13.096;2024-01-25T03:13:20;7.60;99.90
3564;DHT22;1796;52.388;13.096;2024-01-25T03:15:47;7.60;99.90
3564;DHT22;1796;52.388;13.096;2024-01-25T03:18:14;7.60;99.90
3564;DHT22;1796;52.388;13.096;2024-01-25T03:20:41;7.60;99.90
3564;DHT22;1796;52.388;13.096;2024-01-25T03:23:08;7.60;99.90
3564;DHT22;1796;52.388;13.096;2024-01-25T03:25:35;7.50;99.90
3564;DHT22;1796;52.388;13.096;2024-01-25T03:28:02;7.60;99.90
3564;DHT22;1796;52.388;13.096;2024-01-25T03:30:32;7.60;99.90
3564;DHT22;1796;52.388;13.096;2024-01-25T03:32:59;7.50;99.90
3564;DHT22;1796;52.388;13.096;2024-01-25T03:35:26;7.50;99.90
3564;DHT22;1796;52.388;13.096;2024-01-25T03:37:53;7.50;99.90
3564;DHT22;1796;52.388;13.096;2024-01-25T03:40:20;7.40;99.90
3564;DHT22;1796;52.388;13.096;2024-01-25T03:42:47;7.50;99.90
3564;DHT22;1796;52.388;13.096;2024-01-25T03:45:13;7.50;99.90
3564;DHT22;1796;52.388;13.096;2024-01-25T03:47:42;7.50;99.90
3564;DHT22;1796;52.388;13.096;2024-01-25T03:50:10;7.60;99.90
3564;DHT22;1796;52.388;13.096;2024-01-25T03:52:36;7.50;99.90
3564;DHT22;1796;52.388;13.096;2024-01-25T03:55:04;7.50;99.90
3564;DHT22;1796;52.388;13.096;2024-01-25T03:57:31;7.50;99.90
3564;DHT22;1796;52.388;13.096;2024-01-25T03:59:58;7.50;99.90
3564;DHT22;1796;52.388;13.096;2024-01-25T04:02:25;7.50;99.90
3564;DHT22;1796;52.388;13.096;2024-01-25T04:04:53;7.40;99.90
3564;DHT22;1796;52.388;13.096;2024-01-25T04:07:20;7.40;99.90
3564;DHT22;1796;52.388;13.096;2024-01-25T04:09:46;7.40;99.90
3564;DHT22;1796;52.388;13.096;2024-01-25T04:12:15;7.40;99.90
3564;DHT22;1796;52.388;13.096;2024-01-25T04:14:42;7.40;99.90
3564;DHT22;1796;52.388;13.096;2024-01-25T04:17:09;7.40;99.90
3564;DHT22;1796;52.388;13.096;2024-01-25T04:19:36;7.40;99.90
3564;DHT22;1796;52.388;13.096;2024-01-25T04:22:04;7.40;99.90
3564;DHT22;1796;52.388;13.096;2024-01-25T04:24:31;7.30;99.90
3564;DHT22;1796;52.388;13.096;2024-01-25T04:26:59;7.20;99.90
3564;DHT22;1796;52.388;13.096;2024-01-25T04:29:26;7.10;99.90
3564;DHT22;1796;52.388;13.096;2024-01-25T04:31:53;7.10;99.90
3564;DHT22;1796;52.388;13.096;2024-01-25T04:34:19;7.10;99.90
3564;DHT22;1796;52.388;13.096;2024-01-25T04:36:46;7.10;99.90
3564;DHT22;1796;52.388;13.096;2024-01-25T04:39:14;7.00;99.90
3564;DHT22;1796;52.388;13.096;2024-01-25T04:41:41;7.10;99.90
3564;DHT22;1796;52.388;13.096;2024-01-25T04:44:08;7.20;99.90
3564;DHT22;1796;52.388;13.096;2024-01-25T04:46:36;7.10;99.90
3564;DHT22;1796;52.388;13.096;2024-01-25T04:49:03;7.10;99.90
3564;DHT22;1796;52.388;13.096;2024-01-25T04:51:30;7.10;99.90
3564;DHT22;1796;52.388;13.096;2024-01-25T04:53:57;7.10;99.90
3564;DHT22;1796;52.388;13.096;2024-01-25T04:56:25;7.20;99.90
3564;DHT22;1796;52.388;13.096;2024-01-25T04:58:52;7.30;99.90
3564;DHT22;1796;52.388;13.096;2024-01-25T05:01:19;7.30;99.90
3564;DHT22;1796;52.388;13.096;2024-01-25T05:03:46;7.30;99.90
3564;DHT22;1796;52.388;13.096;2024-01-25T05:06:13;7.30;99.90
3564;DHT22;1796;52.388;13.096;2024-01-25T05:08:42;7.20;99.90
3564;DHT22;1796;52.388;13.096;2024-01-25T05:11:09;7.20;99.90
3564;DHT22;1796;52.388;13.096;2024-01-25T05:13:37;7.10;99.90
3564;DHT22;1796;52.388;13.096;2024-01-25T05:16:05;7.10;99.90
3564;DHT22;1796;52.388;13.096;2024-01-25T05:18:31;7.10;99.90
3564;DHT22;1796;52.388;13.096;2024-01-25T05:20:58;7.10;99.90
3564;DHT22;1796;52.388;13.096;2024-01-25T05:23:26;7.20;99.90
3564;DHT22;1796;52.388;13.096;2024-01-25T05:25:53;7.10;99.90
3564;DHT22;1796;52.388;13.096;2024-01-25T05:28:20;7.20;99.90
3564;DHT22;1796;52.388;13.096;2024-01-25T05:30:48;7.10;99.90
3564;DHT22;1796;52.388;13.096;2024-01-25T05:33:15;7.20;99.90
3564;DHT22;1796;52.388;13.096;2024-01-25T05:35:42;7.20;99.90
3564;DHT22;1796;52.388;13.096;2024-01-25T05:38:09;7.20;99.90
3564;DHT22;1796;52.388;13.096;2024-01-25T05:40:35;7.20;99.90
3564;DHT22;1796;52.388;13.096;2024-01-25T05:43:02;7.20;99.90
3564;DHT22;1796;52.388;13.096;2024-01-25T05:45:30;7.20;99.90
3564;DHT22;1796;52.388;13.096;2024-01-25T05:47:58;7.20;99.90
3564;DHT22;1796;52.388;13.096;2024-01-25T05:50:25;7.10;99.90
3564;DHT22;1796;52.388;13.096;2024-01-25T05:52:52;7.20;99.90
3564;DHT22;1796;52.388;13.096;2024-01-25T05:55:19;7.20;99.90
3564;DHT22;1796;52.388;13.096;2024-01-25T05:57:45;7.20;99.90
3564;DHT22;1796;52.388;13.096;2024-01-25T06:00:13;7.20;99.90
3564;DHT22;1796;52.388;13.096;2024-01-25T06:02:40;7.20;99.90
3564;DHT22;1796;52.388;13.096;2024-01-25T06:05:10;7.20;99.90
3564;DHT22;1796;52.388;13.096;2024-01-25T06:07:37;7.20;99.90
3564;DHT22;1796;52.388;13.096;2024-01-25T06:10:04;7.30;99.90
3564;DHT22;1796;52.388;13.096;2024-01-25T06:12:31;7.30;99.90
3564;DHT22;1796;52.388;13.096;2024-01-25T06:14:58;7.20;99.90
3564;DHT22;1796;52.388;13.096;2024-01-25T06:17:25;7.20;99.90
3564;DHT22;1796;52.388;13.096;2024-01-25T06:19:51;7.20;99.90
3564;DHT22;1796;52.388;13.096;2024-01-25T06:22:20;7.30;99.90
3564;DHT22;1796;52.388;13.096;2024-01-25T06:24:47;7.20;99.90
3564;DHT22;1796;52.388;13.096;2024-01-25T06:27:13;7.20;99.90
3564;DHT22;1796;52.388;13.096;2024-01-25T06:29:40;7.30;99.90
3564;DHT22;1796;52.388;13.096;2024-01-25T06:32:07;7.20;99.90
3564;DHT22;1796;52.388;13.096;2024-01-25T06:34:34;7.20;99.90
3564;DHT22;1796;52.388;13.096;2024-01-25T06:37:01;7.30;99.90
3564;DHT22;1796;52.388;13.096;2024-01-25T06:39:29;7.30;99.90
3564;DHT22;1796;52.388;13.096;2024-01-25T06:41:56;7.20;99.90
3564;DHT22;1796;52.388;13.096;2024-01-25T06:44:23;7.20;99.90
3564;DHT22;1796;52.388;13.096;2024-01-25T06:46:49;7.20;99.90
3564;DHT22;1796;52.388;13.096;2024-01-25T06:49:16;7.20;99.90
3564;DHT22;1796;52.388;13.096;2024-01-25T06:51:43;7.20;99.90
3564;DHT22;1796;52.388;13.096;2024-01-25T06:54:10;7.10;99.90
3564;DHT22;1796;52.388;13.096;2024-01-25T06:56:38;7.10;99.90
3564;DHT22;1796;52.388;13.096;2024-01-25T06:59:05;7.00;99.90
3564;DHT22;1796;52.388;13.096;2024-01-25T07:01:32;7.10;99.90
3564;DHT22;1796;52.388;13.096;2024-01-25T07:03:59;7.10;99.90
3564;DHT22;1796;52.388;13.096;2024-01-25T07:06:26;7.10;99.90
3564;DHT22;1796;52.388;13.096;2024-01-25T07:08:54;7.10;99.90
3564;DHT22;1796;52.388;13.096;2024-01-25T07:11:20;7.10;99.90
3564;DHT22;1796;52.388;13.096;2024-01-25T07:13:49;7.10;99.90
3564;DHT22;1796;52.388;13.096;2024-01-25T07:16:16;7.00;99.90
3564;DHT22;1796;52.388;13.096;2024-01-25T07:18:48;7.00;99.90
3564;DHT22;1796;52.388;13.096;2024-01-25T07:21:15;6.90;99.90
3564;DHT22;1796;52.388;13.096;2024-01-25T07:23:45;6.90;99.90
3564;DHT22;1796;52.388;13.096;2024-01-25T07:26:24;6.90;99.90
3564;DHT22;1796;52.388;13.096;2024-01-25T07:28:52;6.90;99.90
3564;DHT22;1796;52.388;13.096;2024-01-25T07:31:24;6.90;99.90
3564;DHT22;1796;52.388;13.096;2024-01-25T07:33:51;7.00;99.90
3564;DHT22;1796;52.388;13.096;2024-01-25T07:36:17;7.10;99.90
3564;DHT22;1796;52.388;13.096;2024-01-25T07:38:44;7.00;99.90
3564;DHT22;1796;52.388;13.096;2024-01-25T07:41:14;7.10;99.90
3564;DHT22;1796;52.388;13.096;2024-01-25T07:43:41;7.10;99.90
3564;DHT22;1796;52.388;13.096;2024-01-25T07:46:10;7.10;99.90
3564;DHT22;1796;52.388;13.096;2024-01-25T07:48:40;7.20;99.90
3564;DHT22;1796;52.388;13.096;2024-01-25T07:51:11;7.20;99.90
3564;DHT22;1796;52.388;13.096;2024-01-25T07:53:38;7.20;99.90
3564;DHT22;1796;52.388;13.096;2024-01-25T07:56:06;7.20;99.90
3564;DHT22;1796;52.388;13.096;2024-01-25T07:58:34;7.20;99.90
3564;DHT22;1796;52.388;13.096;2024-01-25T08:01:18;7.30;99.90
3564;DHT22;1796;52.388;13.096;2024-01-25T08:03:45;7.30;99.90
3564;DHT22;1796;52.388;13.096;2024-01-25T08:06:13;7.30;99.90
3564;DHT22;1796;52.388;13.096;2024-01-25T08:08:41;7.30;99.90
3564;DHT22;1796;52.388;13.096;2024-01-25T08:11:13;7.30;99.90
3564;DHT22;1796;52.388;13.096;2024-01-25T08:13:44;7.20;99.90
3564;DHT22;1796;52.388;13.096;2024-01-25T08:16:11;7.30;99.90
3564;DHT22;1796;52.388;13.096;2024-01-25T08:18:40;7.30;99.90
3564;DHT22;1796;52.388;13.096;2024-01-25T08:21:11;7.30;99.90
3564;DHT22;1796;52.388;13.096;2024-01-25T08:23:38;7.40;99.90
3564;DHT22;1796;52.388;13.096;2024-01-25T08:26:05;7.40;99.90
3564;DHT22;1796;52.388;13.096;2024-01-25T08:28:34;7.50;99.90
3564;DHT22;1796;52.388;13.096;2024-01-25T08:31:01;7.50;99.90
3564;DHT22;1796;52.388;13.096;2024-01-25T08:33:28;7.50;99.90
3564;DHT22;1796;52.388;13.096;2024-01-25T08:35:56;7.50;99.90
3564;DHT22;1796;52.388;13.096;2024-01-25T08:38:23;7.50;99.90
3564;DHT22;1796;52.388;13.096;2024-01-25T08:40:50;7.60;99.90
3564;DHT22;1796;52.388;13.096;2024-01-25T08:43:17;7.50;99.90
3564;DHT22;1796;52.388;13.096;2024-01-25T08:45:44;7.60;99.90
3564;DHT22;1796;52.388;13.096;2024-01-25T08:48:11;7.50;99.90
3564;DHT22;1796;52.388;13.096;2024-01-25T08:50:38;7.50;99.90
3564;DHT22;1796;52.388;13.096;2024-01-25T08:53:07;7.60;99.90
3564;DHT22;1796;52.388;13.096;2024-01-25T08:55:34;7.70;99.90
3564;DHT22;1796;52.388;13.096;2024-01-25T08:58:00;7.70;99.90
3564;DHT22;1796;52.388;13.096;2024-01-25T09:00:27;7.60;99.90
3564;DHT22;1796;52.388;13.096;2024-01-25T09:02:54;7.70;99.90
3564;DHT22;1796;52.388;13.096;2024-01-25T09:05:21;7.80;99.90
3564;DHT22;1796;52.388;13.096;2024-01-25T09:07:48;7.90;99.90
3564;DHT22;1796;52.388;13.096;2024-01-25T09:10:17;7.90;99.90
3564;DHT22;1796;52.388;13.096;2024-01-25T09:12:44;7.90;99.90
3564;DHT22;1796;52.388;13.096;2024-01-25T09:15:11;7.80;99.90
3564;DHT22;1796;52.388;13.096;2024-01-25T09:17:39;7.90;99.90
3564;DHT22;1796;52.388;13.096;2024-01-25T09:20:07;8.00;99.90
3564;DHT22;1796;52.388;13.096;2024-01-25T09:22:34;7.90;99.90
3564;DHT22;1796;52.388;13.096;2024-01-25T09:25:01;7.90;99.90
3564;DHT22;1796;52.388;13.096;2024-01-25T09:27:29;8.00;99.90
3564;DHT22;1796;52.388;13.096;2024-01-25T09:29:56;7.90;99.90
3564;DHT22;1796;52.388;13.096;2024-01-25T09:32:22;7.90;99.90
3564;DHT22;1796;52.388;13.096;2024-01-25T09:34:49;8.00;99.90
3564;DHT22;1796;52.388;13.096;2024-01-25T09:37:16;8.10;99.90
3564;DHT22;1796;52.388;13.096;2024-01-25T09:39:45;8.10;99.90
3564;DHT22;1796;52.388;13.096;2024-01-25T09:42:12;8.10;99.90
3564;DHT22;1796;52.388;13.096;2024-01-25T09:44:41;8.20;99.90
3564;DHT22;1796;52.388;13.096;2024-01-25T09:47:09;8.30;99.90
3564;DHT22;1796;52.388;13.096;2024-01-25T09:49:37;8.10;99.90
3564;DHT22;1796;52.388;13.096;2024-01-25T09:52:05;8.20;99.90
3564;DHT22;1796;52.388;13.096;2024-01-25T09:54:34;8.20;99.90
3564;DHT22;1796;52.388;13.096;2024-01-25T09:57:05;8.20;99.90
3564;DHT22;1796;52.388;13.096;2024-01-25T09:59:32;8.30;99.90
3564;DHT22;1796;52.388;13.096;2024-01-25T10:02:01;8.40;99.90
3564;DHT22;1796;52.388;13.096;2024-01-25T10:04:28;8.30;99.90
3564;DHT22;1796;52.388;13.096;2024-01-25T10:06:55;8.30;99.90
3564;DHT22;1796;52.388;13.096;2024-01-25T10:09:22;8.20;99.90
3564;DHT22;1796;52.388;13.096;2024-01-25T10:11:49;8.30;99.90
3564;DHT22;1796;52.388;13.096;2024-01-25T10:14:16;8.30;99.90
3564;DHT22;1796;52.388;13.096;2024-01-25T10:16:45;8.40;99.90
3564;DHT22;1796;52.388;13.096;2024-01-25T10:19:13;8.30;99.90
3564;DHT22;1796;52.388;13.096;2024-01-25T10:21:41;8.30;99.90
3564;DHT22;1796;52.388;13.096;2024-01-25T10:24:09;8.40;99.90
3564;DHT22;1796;52.388;13.096;2024-01-25T10:26:36;8.50;99.90
3564;DHT22;1796;52.388;13.096;2024-01-25T10:29:03;8.50;99.90
3564;DHT22;1796;52.388;13.096;2024-01-25T10:31:31;8.40;99.90
3564;DHT22;1796;52.388;13.096;2024-01-25T10:33:59;8.60;99.90
3564;DHT22;1796;52.388;13.096;2024-01-25T10:36:27;8.60;99.90
3564;DHT22;1796;52.388;13.096;2024-01-25T10:38:55;8.70;99.90
3564;DHT22;1796;52.388;13.096;2024-01-25T10:41:24;8.80;99.90
3564;DHT22;1796;52.388;13.096;2024-01-25T10:43:51;8.60;99.90
3564;DHT22;1796;52.388;13.096;2024-01-25T10:46:19;8.70;99.90
3564;DHT22;1796;52.388;13.096;2024-01-25T10:48:46;8.70;99.90
3564;DHT22;1796;52.388;13.096;2024-01-25T10:51:14;8.70;99.90
3564;DHT22;1796;52.388;13.096;2024-01-25T10:53:45;8.60;99.90
3564;DHT22;1796;52.388;13.096;2024-01-25T10:56:13;8.70;99.90
3564;DHT22;1796;52.388;13.096;2024-01-25T10:58:41;8.80;99.90
3564;DHT22;1796;52.388;13.096;2024-01-25T11:01:08;8.90;99.90
3564;DHT22;1796;52.388;13.096;2024-01-25T11:03:39;8.90;99.90
3564;DHT22;1796;52.388;13.096;2024-01-25T11:06:07;9.00;99.90
3564;DHT22;1796;52.388;13.096;2024-01-25T11:08:35;9.00;99.90
3564;DHT22;1796;52.388;13.096;2024-01-25T11:11:05;9.00;99.90
3564;DHT22;1796;52.388;13.096;2024-01-25T11:13:33;9.10;99.90
3564;DHT22;1796;52.388;13.096;2024-01-25T11:16:12;9.10;99.90
3564;DHT22;1796;52.388;13.096;2024-01-25T11:18:48;8.90;99.90
3564;DHT22;1796;52.388;13.096;2024-01-25T11:21:22;9.00;99.90
3564;DHT22;1796;52.388;13.096;2024-01-25T11:23:59;9.10;99.90
3564;DHT22;1796;52.388;13.096;2024-01-25T11:26:27;9.30;99.90
3564;DHT22;1796;52.388;13.096;2024-01-25T11:28:55;9.20;99.90
3564;DHT22;1796;52.388;13.096;2024-01-25T11:31:22;9.00;99.90
3564;DHT22;1796;52.388;13.096;2024-01-25T11:33:50;8.90;99.90
3564;DHT22;1796;52.388;13.096;2024-01-25T11:36:20;8.90;99.90
3564;DHT22;1796;52.388;13.096;2024-01-25T11:38:48;8.90;99.90
3564;DHT22;1796;52.388;13.096;2024-01-25T11:41:15;8.80;99.90
3564;DHT22;1796;52.388;13.096;2024-01-25T11:43:43;8.90;99.90
3564;DHT22;1796;52.388;13.096;2024-01-25T11:46:10;8.90;99.90
3564;DHT22;1796;52.388;13.096;2024-01-25T11:48:39;8.80;99.90
3564;DHT22;1796;52.388;13.096;2024-01-25T11:51:06;8.80;99.90
3564;DHT22;1796;52.388;13.096;2024-01-25T11:53:33;8.90;99.90
3564;DHT22;1796;52.388;13.096;2024-01-25T11:56:00;9.00;99.90
3564;DHT22;1796;52.388;13.096;2024-01-25T11:58:27;9.00;99.90
3564;DHT22;1796;52.388;13.096;2024-01-25T12:00:56;9.00;99.90
3564;DHT22;1796;52.388;13.096;2024-01-25T12:03:23;9.20;99.90
3564;DHT22;1796;52.388;13.096;2024-01-25T12:05:50;9.30;99.90
3564;DHT22;1796;52.388;13.096;2024-01-25T12:08:17;9.30;99.90
3564;DHT22;1796;52.388;13.096;2024-01-25T12:10:44;9.30;99.90
3564;DHT22;1796;52.388;13.096;2024-01-25T12:13:11;9.10;99.90
3564;DHT22;1796;52.388;13.096;2024-01-25T12:15:37;9.10;99.90
3564;DHT22;1796;52.388;13.096;2024-01-25T12:18:07;9.00;99.90
3564;DHT22;1796;52.388;13.096;2024-01-25T12:20:36;9.00;99.90
3564;DHT22;1796;52.388;13.096;2024-01-25T12:23:03;9.10;99.90
3564;DHT22;1796;52.388;13.096;2024-01-25T12:25:30;9.20;99.90
3564;DHT22;1796;52.388;13.096;2024-01-25T12:27:57;9.20;99.90
3564;DHT22;1796;52.388;13.096;2024-01-25T12:30:26;9.10;99.90
3564;DHT22;1796;52.388;13.096;2024-01-25T12:36:16;8.90;99.90
3564;DHT22;1796;52.388;13.096;2024-01-25T12:38:44;9.00;99.90
3564;DHT22;1796;52.388;13.096;2024-01-25T12:41:11;9.00;99.90
3564;DHT22;1796;52.388;13.096;2024-01-25T12:43:37;9.10;99.90
3564;DHT22;1796;52.388;13.096;2024-01-25T12:46:04;9.30;99.90
3564;DHT22;1796;52.388;13.096;2024-01-25T12:48:31;9.40;99.90
3564;DHT22;1796;52.388;13.096;2024-01-25T12:50:58;9.40;99.90
3564;DHT22;1796;52.388;13.096;2024-01-25T12:53:27;9.30;99.90
3564;DHT22;1796;52.388;13.096;2024-01-25T12:55:54;9.20;99.90
3564;DHT22;1796;52.388;13.096;2024-01-25T12:58:23;9.20;99.90
3564;DHT22;1796;52.388;13.096;2024-01-25T13:00:50;9.30;99.90
3564;DHT22;1796;52.388;13.096;2024-01-25T13:03:16;9.30;99.90
3564;DHT22;1796;52.388;13.096;2024-01-25T13:05:43;9.40;99.90
3564;DHT22;1796;52.388;13.096;2024-01-25T13:08:10;9.40;99.90
3564;DHT22;1796;52.388;13.096;2024-01-25T13:10:38;9.30;99.90
3564;DHT22;1796;52.388;13.096;2024-01-25T13:13:05;9.00;99.90
3564;DHT22;1796;52.388;13.096;2024-01-25T13:15:32;9.00;99.90
3564;DHT22;1796;52.388;13.096;2024-01-25T13:17:59;9.10;99.90
3564;DHT22;1796;52.388;13.096;2024-01-25T13:20:27;9.20;99.90
3564;DHT22;1796;52.388;13.096;2024-01-25T13:22:53;9.10;99.90
3564;DHT22;1796;52.388;13.096;2024-01-25T13:25:20;9.10;99.90
3564;DHT22;1796;52.388;13.096;2024-01-25T13:27:48;9.00;99.90
3564;DHT22;1796;52.388;13.096;2024-01-25T13:30:16;9.00;99.90
3564;DHT22;1796;52.388;13.096;2024-01-25T13:32:43;8.90;99.90
3564;DHT22;1796;52.388;13.096;2024-01-25T13:35:10;8.80;99.90
3564;DHT22;1796;52.388;13.096;2024-01-25T13:37:36;8.70;99.90
3564;DHT22;1796;52.388;13.096;2024-01-25T13:40:05;8.60;99.90
3564;DHT22;1796;52.388;13.096;2024-01-25T13:42:32;8.70;99.90
3564;DHT22;1796;52.388;13.096;2024-01-25T13:45:00;8.70;99.90
3564;DHT22;1796;52.388;13.096;2024-01-25T13:47:28;8.70;99.90
3564;DHT22;1796;52.388;13.096;2024-01-25T13:49:55;8.70;99.90
3564;DHT22;1796;52.388;13.096;2024-01-25T13:52:21;8.70;99.90
3564;DHT22;1796;52.388;13.096;2024-01-25T13:54:48;8.80;99.90
3564;DHT22;1796;52.388;13.096;2024-01-25T13:57:16;8.70;99.90
3564;DHT22;1796;52.388;13.096;2024-01-25T13:59:43;8.70;99.90
3564;DHT22;1796;52.388;13.096;2024-01-25T14:02:11;8.70;99.90
3564;DHT22;1796;52.388;13.096;2024-01-25T14:04:38;8.60;99.90
3564;DHT22;1796;52.388;13.096;2024-01-25T14:07:05;8.70;99.90
3564;DHT22;1796;52.388;13.096;2024-01-25T14:09:32;8.60;99.90
3564;DHT22;1796;52.388;13.096;2024-01-25T14:11:59;8.60;99.90
3564;DHT22;1796;52.388;13.096;2024-01-25T14:14:26;8.70;99.90
3564;DHT22;1796;52.388;13.096;2024-01-25T14:16:53;8.70;99.90
3564;DHT22;1796;52.388;13.096;2024-01-25T14:19:21;8.50;99.90
3564;DHT22;1796;52.388;13.096;2024-01-25T14:21:48;8.50;99.90
3564;DHT22;1796;52.388;13.096;2024-01-25T14:24:16;8.50;99.90
3564;DHT22;1796;52.388;13.096;2024-01-25T14:26:44;8.50;99.90
3564;DHT22;1796;52.388;13.096;2024-01-25T14:29:11;8.40;99.90
3564;DHT22;1796;52.388;13.096;2024-01-25T14:31:38;8.40;99.90
3564;DHT22;1796;52.388;13.096;2024-01-25T14:34:06;8.40;99.90
3564;DHT22;1796;52.388;13.096;2024-01-25T14:36:35;8.30;99.90
3564;DHT22;1796;52.388;13.096;2024-01-25T14:39:02;8.30;99.90
3564;DHT22;1796;52.388;13.096;2024-01-25T14:41:30;8.30;99.90
3564;DHT22;1796;52.388;13.096;2024-01-25T14:43:59;8.20;99.90
3564;DHT22;1796;52.388;13.096;2024-01-25T14:46:26;8.20;99.90
3564;DHT22;1796;52.388;13.096;2024-01-25T14:48:53;8.10;99.90
3564;DHT22;1796;52.388;13.096;2024-01-25T14:51:20;8.10;99.90
3564;DHT22;1796;52.388;13.096;2024-01-25T14:53:48;8.20;99.90
3564;DHT22;1796;52.388;13.096;2024-01-25T14:56:15;8.00;99.90
3564;DHT22;1796;52.388;13.096;2024-01-25T14:58:42;8.10;99.90
3564;DHT22;1796;52.388;13.096;2024-01-25T15:01:13;7.90;99.90
3564;DHT22;1796;52.388;13.096;2024-01-25T15:03:40;7.90;99.90
3564;DHT22;1796;52.388;13.096;2024-01-25T15:06:06;7.90;99.90
3564;DHT22;1796;52.388;13.096;2024-01-25T15:08:33;8.00;99.90
3564;DHT22;1796;52.388;13.096;2024-01-25T15:11:02;7.90;99.90
3564;DHT22;1796;52.388;13.096;2024-01-25T15:13:29;7.90;99.90
3564;DHT22;1796;52.388;13.096;2024-01-25T15:15:56;7.90;99.90
3564;DHT22;1796;52.388;13.096;2024-01-25T15:18:23;7.70;99.90
3564;DHT22;1796;52.388;13.096;2024-01-25T15:20:50;7.80;99.90
3564;DHT22;1796;52.388;13.096;2024-01-25T15:23:18;7.70;99.90
3564;DHT22;1796;52.388;13.096;2024-01-25T15:25:45;7.80;99.90
3564;DHT22;1796;52.388;13.096;2024-01-25T15:28:13;7.70;99.90
3564;DHT22;1796;52.388;13.096;2024-01-25T15:30:40;7.70;99.90
3564;DHT22;1796;52.388;13.096;2024-01-25T15:33:07;7.70;99.90
3564;DHT22;1796;52.388;13.096;2024-01-25T15:35:34;7.70;99.90
3564;DHT22;1796;52.388;13.096;2024-01-25T15:38:01;7.70;99.90
3564;DHT22;1796;52.388;13.096;2024-01-25T15:40:30;7.70;99.90
3564;DHT22;1796;52.388;13.096;2024-01-25T15:42:57;7.60;99.90
3564;DHT22;1796;52.388;13.096;2024-01-25T15:45:25;7.60;99.90
3564;DHT22;1796;52.388;13.096;2024-01-25T15:47:52;7.60;99.90
3564;DHT22;1796;52.388;13.096;2024-01-25T15:50:19;7.50;99.90
3564;DHT22;1796;52.388;13.096;2024-01-25T15:52:46;7.50;99.90
3564;DHT22;1796;52.388;13.096;2024-01-25T15:55:13;7.50;99.90
3564;DHT22;1796;52.388;13.096;2024-01-25T15:57:40;7.50;99.90
3564;DHT22;1796;52.388;13.096;2024-01-25T16:00:08;7.60;99.90
3564;DHT22;1796;52.388;13.096;2024-01-25T16:02:36;7.60;99.90
3564;DHT22;1796;52.388;13.096;2024-01-25T16:05:04;7.50;99.90
3564;DHT22;1796;52.388;13.096;2024-01-25T16:07:31;7.50;99.90
3564;DHT22;1796;52.388;13.096;2024-01-25T16:09:58;7.50;99.90
3564;DHT22;1796;52.388;13.096;2024-01-25T16:12:25;7.50;99.90
3564;DHT22;1796;52.388;13.096;2024-01-25T16:14:52;7.50;99.90